createdAt,value
2023-04-18T00:04:50.723Z,2.20
2023-04-18T00:09:53.690Z,1.90
2023-04-18T00:14:58.878Z,2.10
2023-04-18T00:20:04.928Z,2.13
2023-04-18T00:25:08.743Z,2.00
2023-04-18T00:30:12.005Z,2.00
2023-04-18T00:35:15.025Z,1.98
2023-04-18T00:40:17.950Z,2.08
2023-04-18T00:45:21.158Z,2.00
2023-04-18T00:50:24.787Z,2.30
2023-04-18T00:55:29.307Z,1.95
2023-04-18T01:00:32.648Z,2.17
2023-04-18T01:10:40.859Z,2.55
2023-04-18T01:15:49.142Z,2.67
2023-04-18T01:20:54.815Z,2.78
2023-04-18T01:25:58.069Z,3.28
2023-04-18T01:31:01.892Z,2.75
2023-04-18T01:36:05.170Z,3.30
2023-04-18T01:41:08.156Z,2.92
2023-04-18T01:46:11.069Z,2.78
2023-04-18T01:51:14.261Z,3.22
2023-04-18T01:56:17.298Z,3.97
2023-04-18T02:01:20.846Z,3.30
2023-04-18T02:06:23.906Z,4.05
2023-04-18T02:11:26.911Z,3.75
2023-04-18T02:16:29.937Z,3.97
2023-04-18T02:21:33.102Z,4.40
2023-04-18T02:26:36.279Z,4.05
2023-04-18T02:31:40.809Z,3.78
2023-04-18T02:36:43.857Z,3.50
2023-04-18T02:42:05.021Z,3.25
2023-04-18T02:47:07.855Z,3.88
2023-04-18T02:52:14.744Z,4.25
2023-04-18T02:57:17.671Z,3.85
2023-04-18T03:02:39.655Z,3.60
2023-04-18T03:08:11.489Z,3.50
2023-04-18T03:13:15.455Z,3.88
2023-04-18T03:18:19.292Z,4.30
2023-04-18T03:23:22.391Z,4.00
2023-04-18T03:28:25.322Z,4.30
2023-04-18T03:33:29.815Z,3.90
2023-04-18T03:38:42.743Z,4.28
2023-04-18T03:43:45.760Z,3.50
2023-04-18T03:48:48.731Z,4.57
2023-04-18T03:53:51.794Z,3.80
2023-04-18T03:58:54.856Z,3.30
2023-04-18T04:04:17.086Z,6.65
2023-04-18T04:09:20.439Z,2.78
2023-04-18T04:14:24.764Z,2.42
2023-04-18T04:19:29.503Z,2.35
2023-04-18T04:24:53.276Z,2.58
2023-04-18T04:30:04.360Z,2.50
2023-04-18T04:40:12.033Z,2.60
2023-04-18T04:45:33.366Z,2.42
2023-04-18T04:50:37.909Z,3.17
2023-04-18T04:55:41.612Z,2.63
2023-04-18T05:05:48.153Z,1.98
2023-04-18T05:10:51.329Z,1.88
2023-04-18T05:15:54.225Z,2.28
2023-04-18T05:20:57.396Z,2.00
2023-04-18T05:26:00.865Z,2.20
2023-04-18T05:31:23.165Z,1.67
2023-04-18T05:36:26.961Z,1.90
2023-04-18T05:41:29.854Z,1.80
2023-04-18T05:46:33.193Z,1.90
2023-04-18T05:51:54.817Z,1.90
2023-04-18T05:56:57.762Z,2.05
2023-04-18T06:02:01.028Z,1.90
2023-04-18T06:07:25.299Z,1.80
2023-04-18T06:12:28.272Z,1.90
2023-04-18T06:17:31.221Z,1.85
2023-04-18T06:22:36.905Z,2.13
2023-04-18T06:27:40.039Z,1.88
2023-04-18T06:32:43.792Z,2.08
2023-04-18T06:37:46.952Z,2.10
2023-04-18T06:42:49.928Z,1.80
2023-04-18T06:47:53.755Z,2.00
2023-04-18T06:52:56.626Z,2.47
2023-04-18T06:58:00.725Z,2.22
2023-04-18T07:03:11.427Z,1.80
2023-04-18T07:08:15.579Z,2.10
2023-04-18T07:13:18.643Z,2.13
2023-04-18T07:18:34.167Z,1.98
2023-04-18T07:23:58.833Z,1.73
2023-04-18T07:29:01.804Z,2.17
2023-04-18T07:34:05.211Z,2.22
2023-04-18T07:39:08.422Z,1.98
2023-04-18T07:44:11.628Z,2.10
2023-04-18T07:49:14.875Z,1.80
2023-04-18T07:54:18.033Z,2.00
2023-04-18T07:59:21.301Z,2.15
2023-04-18T08:04:26.890Z,1.95
2023-04-18T08:09:49.920Z,2.03
2023-04-18T08:14:52.914Z,2.10
2023-04-18T08:19:56.022Z,2.00
2023-04-18T08:25:04.901Z,1.95
2023-04-18T08:30:09.994Z,2.00
2023-04-18T08:35:13.242Z,2.03
2023-04-18T08:40:17.094Z,2.10
2023-04-18T08:45:21.079Z,1.90
2023-04-18T08:50:24.028Z,2.00
2023-04-18T09:00:30.688Z,2.20
2023-04-18T09:05:33.925Z,2.10
2023-04-18T09:10:38.569Z,2.22
2023-04-18T09:15:43.365Z,1.95
2023-04-18T09:20:47.836Z,2.20
2023-04-18T09:25:52.482Z,2.00
2023-04-18T09:31:15.451Z,2.45
2023-04-18T09:36:37.632Z,1.98
2023-04-18T09:41:40.643Z,2.30
2023-04-18T09:46:47.135Z,2.50
2023-04-18T09:51:56.809Z,2.25
2023-04-18T09:57:03.129Z,2.38
2023-04-18T10:02:10.298Z,1.88
2023-04-18T10:07:32.610Z,1.85
2023-04-18T10:12:37.695Z,1.90
2023-04-18T10:18:04.555Z,1.90
2023-04-18T10:23:35.160Z,1.98
2023-04-18T10:28:55.195Z,1.65
2023-04-18T10:34:05.240Z,2.20
2023-04-18T10:39:23.327Z,2.45
2023-04-18T10:44:27.225Z,2.10
2023-04-18T10:49:34.074Z,2.40
2023-04-18T10:54:58.424Z,2.13
2023-04-18T11:00:02.868Z,2.42
2023-04-18T11:05:08.565Z,2.10
2023-04-18T11:10:12.383Z,2.45
2023-04-18T11:15:21.604Z,2.00
2023-04-18T11:20:25.223Z,1.92
2023-04-18T11:25:30.815Z,2.35
2023-04-18T11:30:43.158Z,1.98
2023-04-18T11:35:46.891Z,1.90
2023-04-18T11:40:51.242Z,2.00
2023-04-18T11:46:13.707Z,1.85
2023-04-18T11:51:34.836Z,2.83
2023-04-18T11:56:47.397Z,2.10
2023-04-18T12:02:14.923Z,2.05
2023-04-18T12:07:45.968Z,2.17
2023-04-18T12:12:50.729Z,2.00
2023-04-18T12:18:01.276Z,1.40
2023-04-18T12:23:04.775Z,1.92
2023-04-18T12:28:15.977Z,1.90
2023-04-18T12:33:19.809Z,2.22
2023-04-18T12:38:23.775Z,2.13
2023-04-18T12:43:26.944Z,1.95
2023-04-18T12:48:29.964Z,2.05
2023-04-18T12:53:33.004Z,2.25
2023-04-18T12:58:54.562Z,2.80
2023-04-18T13:04:08.803Z,1.98
2023-04-18T13:09:34.378Z,1.80
2023-04-18T13:14:37.304Z,2.22
2023-04-18T13:19:40.518Z,2.28
2023-04-18T13:24:43.530Z,2.05
2023-04-18T13:29:46.736Z,2.08
2023-04-18T13:34:49.791Z,2.08
2023-04-18T13:39:52.725Z,1.90
2023-04-18T13:44:55.590Z,2.63
2023-04-18T13:49:58.631Z,2.30
2023-04-18T13:55:01.556Z,2.90
2023-04-18T14:00:09.414Z,2.20
2023-04-18T14:05:16.652Z,2.10
2023-04-18T14:10:21.842Z,2.40
2023-04-18T14:15:25.006Z,2.33
2023-04-18T14:20:34.435Z,2.65
2023-04-18T14:25:37.331Z,3.40
2023-04-18T14:30:40.687Z,2.10
2023-04-18T14:35:44.196Z,2.40
2023-04-18T14:40:47.348Z,2.25
2023-04-18T14:45:50.216Z,2.10
2023-04-18T14:50:57.454Z,2.20
2023-04-18T14:56:00.302Z,2.00
2023-04-18T15:01:04.318Z,1.90
2023-04-18T15:06:07.471Z,2.58
2023-04-18T15:11:10.931Z,2.20
2023-04-18T15:16:14.006Z,3.00
2023-04-18T15:21:17.197Z,3.58
2023-04-18T15:26:20.210Z,3.40
2023-04-18T15:31:23.668Z,2.80
2023-04-18T15:36:27.872Z,3.42
2023-04-18T15:41:31.269Z,3.55
2023-04-18T15:46:34.952Z,3.78
2023-04-18T15:51:38.185Z,3.97
2023-04-18T15:56:59.696Z,4.03
2023-04-18T16:02:02.783Z,4.20
2023-04-18T16:07:06.621Z,4.68
2023-04-18T16:12:09.537Z,4.50
2023-04-18T16:17:12.768Z,4.85
2023-04-18T16:22:15.765Z,5.43
2023-04-18T16:32:21.569Z,5.20
2023-04-18T16:37:24.609Z,4.85
2023-04-18T16:42:27.569Z,4.43
2023-04-18T16:47:30.818Z,4.00
2023-04-18T16:52:52.077Z,4.57
2023-04-18T17:02:58.418Z,4.57
2023-04-18T17:08:01.452Z,3.60
2023-04-18T17:13:04.637Z,3.47
2023-04-18T17:23:30.956Z,3.10
2023-04-18T17:28:36.692Z,2.83
2023-04-18T17:33:39.793Z,2.58
2023-04-18T17:38:49.084Z,2.55
2023-04-18T17:43:52.155Z,2.40
2023-04-18T17:48:55.095Z,2.20
2023-04-18T17:53:58.081Z,2.70
2023-04-18T17:59:01.398Z,2.28
2023-04-18T18:04:04.522Z,2.35
2023-04-18T18:09:25.918Z,2.20
2023-04-18T18:14:28.871Z,2.08
2023-04-18T18:19:32.065Z,2.50
2023-04-18T18:24:53.758Z,2.72
2023-04-18T18:30:15.083Z,2.90
2023-04-18T18:35:18.100Z,2.72
2023-04-18T18:40:21.486Z,3.20
2023-04-18T18:50:27.350Z,2.60
2023-04-18T18:55:30.536Z,2.33
2023-04-18T19:00:33.533Z,2.17
2023-04-18T19:05:36.921Z,1.80
2023-04-18T19:15:42.833Z,1.80
2023-04-18T19:20:46.636Z,1.80
2023-04-18T19:25:49.565Z,1.95
2023-04-18T19:30:53.319Z,1.67
2023-04-18T19:35:56.590Z,1.80
2023-04-18T19:40:59.562Z,1.95
2023-04-18T19:46:02.744Z,2.00
2023-04-18T19:51:05.757Z,2.00
2023-04-18T19:56:11.321Z,1.80
2023-04-18T20:01:19.026Z,2.10
2023-04-18T20:06:22.285Z,2.10
2023-04-18T20:11:25.181Z,2.08
2023-04-18T20:16:28.149Z,2.03
2023-04-18T20:21:31.432Z,1.90
2023-04-18T20:26:34.301Z,1.85
2023-04-18T20:31:42.116Z,1.70
2023-04-18T20:36:46.906Z,1.77
2023-04-18T20:41:51.038Z,1.75
2023-04-18T20:46:53.888Z,1.80
2023-04-18T20:51:56.860Z,1.90
2023-04-18T20:57:00.347Z,1.50
2023-04-18T21:02:03.823Z,1.70
2023-04-18T21:12:09.373Z,1.80
2023-04-18T21:17:17.168Z,1.80
2023-04-18T21:22:20.135Z,1.83
2023-04-18T21:27:23.002Z,1.60
2023-04-18T21:32:26.002Z,1.83
2023-04-18T21:37:47.554Z,1.40
2023-04-18T21:42:53.260Z,1.60
2023-04-18T21:47:56.275Z,1.60
2023-04-18T21:52:59.124Z,1.65
2023-04-18T21:58:02.319Z,1.45
2023-04-18T22:03:05.409Z,1.40
2023-04-18T22:08:08.477Z,1.27
2023-04-18T22:13:11.632Z,1.42
2023-04-18T22:18:14.756Z,1.27
2023-04-18T22:23:17.620Z,1.33
2023-04-18T22:28:39.277Z,1.58
2023-04-18T22:33:42.197Z,1.50
2023-04-18T22:38:45.116Z,1.30
2023-04-18T22:43:48.035Z,2.00
2023-04-18T22:48:50.909Z,2.45
2023-04-18T22:53:53.793Z,2.50
2023-04-18T22:58:57.083Z,3.65
2023-04-18T23:04:00.008Z,3.50
2023-04-18T23:09:04.408Z,3.20
2023-04-18T23:14:08.858Z,3.50
2023-04-18T23:19:11.806Z,3.20
2023-04-18T23:24:14.973Z,3.47
2023-04-18T23:29:18.109Z,3.40
2023-04-18T23:34:20.933Z,3.70
2023-04-18T23:39:26.149Z,3.28
2023-04-18T23:44:29.119Z,3.42
2023-04-18T23:49:32.053Z,3.83
2023-04-18T23:54:35.085Z,3.42
2023-04-18T23:59:38.247Z,4.13
